Time;durP1;ratioP1;P1;durP2;ratioP2;P2;SDS_P1;SDS_P2;PMS_P1;PMS_P2;Temp;Humidity;BMP_temperature;BMP_pressure;BME280_temperature;BME280_humidity;BME280_pressure;Samples;Min_cycle;Max_cycle;Signal;HPM_P1;HPM_P2
2022/05/31 00:02:29;;;;;;;5.73;5.13;;;5.80;99.90;;;;;;8324100;28;20178;-79
2022/05/31 00:06:30;;;;;;;5.43;4.87;;;5.80;99.90;;;;;;8327447;28;20584;-79
2022/05/31 00:10:31;;;;;;;5.60;4.83;;;5.80;99.90;;;;;;8337919;28;20272;-79
2022/05/31 00:14:32;;;;;;;7.77;5.23;;;5.70;99.90;;;;;;8331748;28;20186;-79
2022/05/31 00:18:33;;;;;;;6.13;5.00;;;5.70;99.90;;;;;;8320815;28;20185;-78
2022/05/31 00:22:35;;;;;;;5.43;4.43;;;5.70;99.90;;;;;;8326007;28;20182;-79
2022/05/31 00:26:40;;;;;;;5.60;4.80;;;5.70;99.90;;;;;;8330681;28;20179;-79
2022/05/31 00:30:41;;;;;;;5.70;5.10;;;5.70;99.90;;;;;;8322704;28;20232;-79
2022/05/31 00:34:47;;;;;;;7.07;5.13;;;5.80;99.90;;;;;;8322487;28;20190;-80
2022/05/31 00:38:48;;;;;;;5.63;5.03;;;5.80;99.90;;;;;;8322341;28;20229;-79
2022/05/31 00:42:55;;;;;;;4.73;4.23;;;5.80;99.90;;;;;;8325175;28;20182;-79
2022/05/31 00:47:28;;;;;;;5.57;4.10;;;5.80;99.90;;;;;;8333416;28;20216;-78
2022/05/31 00:51:40;;;;;;;5.60;4.37;;;5.80;99.90;;;;;;8325595;28;20248;-79
2022/05/31 00:56:00;;;;;;;6.97;5.10;;;5.80;99.90;;;;;;8322723;28;20245;-79
2022/05/31 01:00:09;;;;;;;6.20;5.43;;;5.70;99.90;;;;;;8329617;28;20182;-79
2022/05/31 01:04:11;;;;;;;10.67;8.53;;;5.60;99.90;;;;;;8334110;28;20185;-79
2022/05/31 01:08:12;;;;;;;12.20;8.13;;;5.40;99.90;;;;;;8327322;28;20186;-79
2022/05/31 01:12:15;;;;;;;9.40;6.73;;;5.30;99.90;;;;;;8321473;28;20244;-79
2022/05/31 01:16:16;;;;;;;6.67;5.10;;;5.10;99.90;;;;;;8321964;28;20572;-79
2022/05/31 01:20:20;;;;;;;7.53;5.40;;;5.00;99.90;;;;;;8328488;28;20388;-79
2022/05/31 01:24:22;;;;;;;6.17;4.37;;;4.90;99.90;;;;;;8329960;28;20217;-79
2022/05/31 01:29:19;;;;;;;5.73;4.20;;;4.80;99.90;;;;;;8330674;28;20285;-79
2022/05/31 01:33:38;;;;;;;4.87;4.37;;;4.70;99.90;;;;;;8272559;28;20193;-79
2022/05/31 01:37:57;;;;;;;12.37;8.77;;;4.70;99.90;;;;;;8329507;28;20213;-78
2022/05/31 01:42:03;;;;;;;15.37;10.17;;;4.70;99.90;;;;;;8329261;28;20243;-78
2022/05/31 01:46:11;;;;;;;11.73;7.20;;;4.70;99.90;;;;;;8329600;28;20276;-79
2022/05/31 01:50:17;;;;;;;11.40;6.97;;;4.60;99.90;;;;;;8326987;28;20263;-79
2022/05/31 01:54:19;;;;;;;6.73;5.77;;;4.50;99.90;;;;;;8329207;28;20179;-79
2022/05/31 01:58:25;;;;;;;6.43;5.23;;;4.40;99.90;;;;;;8325622;28;20183;-79
2022/05/31 02:02:26;;;;;;;20.37;11.80;;;4.30;99.90;;;;;;8340283;28;20208;-79
2022/05/31 02:06:34;;;;;;;18.57;9.47;;;4.10;99.90;;;;;;8302413;28;20190;-80
2022/05/31 02:10:35;;;;;;;16.23;8.73;;;4.00;99.90;;;;;;8331142;28;20320;-79
2022/05/31 02:14:36;;;;;;;11.13;5.97;;;3.80;99.90;;;;;;8330612;28;20186;-79
2022/05/31 02:22:56;;;;;;;6.63;4.33;;;3.50;99.90;;;;;;8344575;28;20193;-79
2022/05/31 02:26:58;;;;;;;4.83;3.70;;;3.30;99.90;;;;;;8327413;28;20457;-79
2022/05/31 02:31:00;;;;;;;5.90;4.20;;;3.20;99.90;;;;;;8325562;28;20364;-79
2022/05/31 02:35:01;;;;;;;4.87;3.90;;;3.20;99.90;;;;;;8336497;28;20186;-79
2022/05/31 02:39:03;;;;;;;11.10;6.73;;;3.20;99.90;;;;;;8331581;28;20240;-80
2022/05/31 02:43:04;;;;;;;9.87;6.80;;;3.20;99.90;;;;;;8335285;28;20197;-79
2022/05/31 02:47:07;;;;;;;7.47;5.53;;;3.20;99.90;;;;;;8332817;28;20182;-79
2022/05/31 02:51:08;;;;;;;6.43;4.63;;;3.20;99.90;;;;;;8331062;28;20301;-79
2022/05/31 02:55:09;;;;;;;5.83;4.17;;;3.20;99.90;;;;;;8329369;28;20190;-79
2022/05/31 02:59:10;;;;;;;8.37;5.00;;;3.20;99.90;;;;;;8333526;28;20199;-79
2022/05/31 03:03:11;;;;;;;8.67;6.03;;;3.30;99.90;;;;;;8334832;28;20186;-79
2022/05/31 03:07:11;;;;;;;6.07;4.13;;;3.30;99.90;;;;;;8334179;28;20181;-78
2022/05/31 03:11:47;;;;;;;4.10;3.43;;;3.30;99.90;;;;;;8335441;28;20210;-80
2022/05/31 03:15:49;;;;;;;6.57;5.00;;;3.50;99.90;;;;;;8322231;28;20220;-77
2022/05/31 03:19:58;;;;;;;6.53;5.50;;;4.50;99.90;;;;;;8335064;28;20192;-80
2022/05/31 03:24:06;;;;;;;6.13;3.93;;;5.30;99.90;;;;;;8331988;28;20283;-76
2022/05/31 03:28:09;;;;;;;5.07;4.57;;;6.00;99.90;;;;;;8349835;28;20189;-80
2022/05/31 03:32:11;;;;;;;4.70;3.77;;;6.60;99.90;;;;;;8322760;28;20221;-75
2022/05/31 03:36:12;;;;;;;4.20;3.47;;;7.30;99.90;;;;;;8334287;28;20182;-76
2022/05/31 03:40:56;;;;;;;3.70;3.30;;;8.10;99.90;;;;;;8335852;28;20212;-78
2022/05/31 03:44:34;;;;;;;3.50;3.20;;;8.90;99.90;;;;;;8345637;28;20212;-77
2022/05/31 03:48:34;;;;;;;3.83;3.43;;;9.80;99.90;;;;;;8336533;28;20285;-76
2022/05/31 03:52:35;;;;;;;8.07;4.57;;;10.70;99.90;;;;;;8332258;28;20182;-78
2022/05/31 03:56:36;;;;;;;5.00;3.63;;;11.20;99.90;;;;;;8347356;28;20181;-76
2022/05/31 04:00:38;;;;;;;4.87;3.60;;;11.60;99.90;;;;;;8330760;28;20186;-80
2022/05/31 04:04:38;;;;;;;5.97;3.80;;;12.00;1.00;;;;;;8333166;28;20212;-81
2022/05/31 04:08:39;;;;;;;3.80;3.17;;;12.40;99.90;;;;;;8336179;28;20192;-79
2022/05/31 04:12:40;;;;;;;2.97;2.57;;;12.90;1.00;;;;;;8325922;28;20192;-79
2022/05/31 04:16:41;;;;;;;4.20;3.80;;;13.60;99.90;;;;;;8327303;28;20183;-75
2022/05/31 04:20:42;;;;;;;4.17;3.27;;;13.50;58.40;;;;;;8324640;28;20186;-79
2022/05/31 04:24:43;;;;;;;4.87;3.23;;;13.50;99.90;;;;;;8328826;28;20220;-79
2022/05/31 04:28:44;;;;;;;3.17;2.87;;;13.70;56.60;;;;;;8322753;28;20206;-79
2022/05/31 04:32:45;;;;;;;3.47;2.83;;;14.20;1.00;;;;;;8331112;28;20621;-81
2022/05/31 04:36:46;;;;;;;6.43;3.20;;;14.60;99.90;;;;;;8325666;28;20186;-77
2022/05/31 04:40:47;;;;;;;3.80;2.67;;;14.90;99.90;;;;;;8329360;28;20210;-76
2022/05/31 04:44:48;;;;;;;5.00;3.40;;;15.20;74.60;;;;;;8323447;28;20192;-77
2022/05/31 04:48:49;;;;;;;3.33;2.50;;;15.10;51.80;;;;;;8324587;28;20276;-77
2022/05/31 04:52:50;;;;;;;3.97;3.57;;;15.20;99.90;;;;;;8328188;28;20295;-81
2022/05/31 04:56:54;;;;;;;5.00;3.57;;;15.20;56.50;;;;;;8348457;28;20177;-77
2022/05/31 05:00:55;;;;;;;4.90;4.33;;;15.10;99.90;;;;;;8338180;28;20182;-79
2022/05/31 05:04:56;;;;;;;5.10;4.60;;;14.80;99.90;;;;;;8326444;28;20190;-76
2022/05/31 05:08:57;;;;;;;5.60;4.70;;;14.60;1.00;;;;;;8326686;28;20193;-80
2022/05/31 05:12:58;;;;;;;8.07;5.67;;;14.10;99.90;;;;;;8323943;28;20182;-77
2022/05/31 05:16:58;;;;;;;15.67;10.67;;;13.40;57.90;;;;;;8331986;28;20240;-76
2022/05/31 05:21:00;;;;;;;13.03;9.87;;;12.90;1.00;;;;;;8323431;28;20501;-76
2022/05/31 05:25:01;;;;;;;12.53;7.77;;;12.70;1.00;;;;;;8321603;28;20187;-78
2022/05/31 05:33:21;;;;;;;4.43;3.20;;;12.80;24.10;;;;;;8338667;28;20217;-76
2022/05/31 05:37:22;;;;;;;3.70;3.07;;;13.10;1.00;;;;;;8326304;28;20178;-77
2022/05/31 05:41:25;;;;;;;3.13;2.73;;;13.40;99.90;;;;;;8321704;28;20241;-76
2022/05/31 05:45:26;;;;;;;5.07;2.90;;;13.60;99.90;;;;;;8328441;28;20272;-77
2022/05/31 05:49:26;;;;;;;3.53;2.50;;;13.70;47.10;;;;;;8327163;28;20235;-77
2022/05/31 05:53:28;;;;;;;3.63;2.80;;;13.90;3.20;;;;;;8323559;28;20182;-81
2022/05/31 05:57:29;;;;;;;3.43;2.77;;;14.10;99.90;;;;;;8319206;28;20178;-77
2022/05/31 06:01:48;;;;;;;4.27;2.97;;;14.30;1.00;;;;;;8334464;28;20202;-81
2022/05/31 06:05:50;;;;;;;3.67;2.03;;;14.50;99.90;;;;;;8323633;28;20225;-80
2022/05/31 06:10:14;;;;;;;4.53;2.73;;;14.60;99.90;;;;;;8327307;28;20209;-80
2022/05/31 06:14:51;;;;;;;3.00;2.53;;;14.60;99.90;;;;;;8316729;28;20221;-77
2022/05/31 06:19:17;;;;;;;3.27;2.23;;;14.80;99.90;;;;;;8275081;28;20197;-79
2022/05/31 06:23:19;;;;;;;2.87;2.50;;;14.90;99.90;;;;;;8328703;28;20191;-77
2022/05/31 06:27:20;;;;;;;2.70;2.20;;;15.10;99.90;;;;;;8338041;28;20418;-77
2022/05/31 06:31:21;;;;;;;2.90;1.80;;;15.30;99.90;;;;;;8336127;28;20304;-81
2022/05/31 06:35:22;;;;;;;3.17;2.43;;;15.60;99.90;;;;;;8326339;28;20178;-79
2022/05/31 06:39:23;;;;;;;3.07;2.30;;;15.90;99.90;;;;;;8332350;28;20206;-77
2022/05/31 06:43:24;;;;;;;2.50;2.17;;;16.40;47.60;;;;;;8336436;28;20190;-77
2022/05/31 06:47:25;;;;;;;3.53;1.97;;;16.60;99.90;;;;;;8326969;28;20190;-80
2022/05/31 07:00:08;;;;;;;3.67;1.57;;;17.20;99.90;;;;;;8342918;28;20224;-77
2022/05/31 07:04:09;;;;;;;2.30;1.80;;;17.50;99.90;;;;;;8333442;28;20190;-81
2022/05/31 07:08:10;;;;;;;2.97;2.20;;;17.90;5.30;;;;;;8334370;28;20197;-78
2022/05/31 07:12:11;;;;;;;2.40;1.77;;;18.20;1.00;;;;;;8323078;28;20220;-77
2022/05/31 07:16:12;;;;;;;3.93;1.80;;;18.30;1.00;;;;;;8328069;28;20182;-78
2022/05/31 07:20:13;;;;;;;2.83;2.00;;;18.30;1.00;;;;;;8325105;28;20740;-77
2022/05/31 07:24:14;;;;;;;3.07;2.17;;;18.60;1.00;;;;;;8331368;28;20206;-77
2022/05/31 07:28:15;;;;;;;2.00;1.50;;;18.70;1.00;;;;;;8323439;28;20194;-76
2022/05/31 07:32:16;;;;;;;3.27;1.50;;;18.80;1.00;;;;;;8329272;28;20210;-77
2022/05/31 07:36:19;;;;;;;7.33;2.07;;;19.00;1.00;;;;;;8325242;28;20178;-79
2022/05/31 07:40:20;;;;;;;2.33;1.70;;;19.10;1.00;;;;;;8339025;28;20213;-77
2022/05/31 07:44:22;;;;;;;5.57;2.20;;;19.00;99.90;;;;;;8323431;28;20186;-77
2022/05/31 07:48:23;;;;;;;4.33;1.83;;;19.00;1.00;;;;;;8348888;28;20178;-80
2022/05/31 07:52:24;;;;;;;3.00;1.60;;;19.00;1.00;;;;;;8333003;28;20205;-76
2022/05/31 07:56:28;;;;;;;4.10;1.60;;;18.90;1.00;;;;;;8330874;28;20187;-78
2022/05/31 08:00:28;;;;;;;4.63;2.10;;;19.00;99.90;;;;;;8333721;28;20186;-80
2022/05/31 08:04:29;;;;;;;3.07;1.97;;;18.90;99.90;;;;;;8333023;28;20250;-81
2022/05/31 08:08:30;;;;;;;2.00;1.20;;;18.60;99.90;;;;;;8324813;28;20220;-80
2022/05/31 08:12:31;;;;;;;2.60;1.30;;;18.40;99.90;;;;;;8318261;28;20270;-77
2022/05/31 08:16:33;;;;;;;2.50;1.50;;;18.40;99.90;;;;;;8328423;28;20178;-77
2022/05/31 08:20:34;;;;;;;3.10;1.40;;;18.60;99.90;;;;;;8328077;28;20189;-77
2022/05/31 08:24:36;;;;;;;1.97;1.43;;;18.90;99.90;;;;;;8331333;28;20186;-79
2022/05/31 08:28:38;;;;;;;1.93;1.37;;;19.10;99.90;;;;;;8333743;28;20284;-80
2022/05/31 08:32:39;;;;;;;3.03;1.43;;;19.30;99.90;;;;;;8330719;28;20217;-79
2022/05/31 08:36:40;;;;;;;3.07;1.43;;;19.60;99.90;;;;;;8326031;28;20189;-81
2022/05/31 08:41:21;;;;;;;1.70;1.40;;;20.10;99.90;;;;;;8327863;28;20302;-77
2022/05/31 08:45:44;;;;;;;3.13;1.40;;;20.50;99.90;;;;;;8326715;28;20259;-79
2022/05/31 08:59:19;;;;;;;1.73;1.00;;;20.20;99.90;;;;;;8338772;28;20228;-77
2022/05/31 09:03:28;;;;;;;1.60;1.07;;;19.30;99.90;;;;;;8322011;28;20221;-80
2022/05/31 09:07:51;;;;;;;3.50;1.70;;;19.00;99.90;;;;;;8318589;28;20190;-79
2022/05/31 09:12:06;;;;;;;4.93;1.40;;;18.70;99.90;;;;;;8319038;28;20216;-81
2022/05/31 09:16:32;;;;;;;1.57;0.83;;;18.70;99.90;;;;;;8315815;28;20174;-81
2022/05/31 09:20:41;;;;;;;3.43;1.97;;;18.30;99.90;;;;;;8324148;28;20186;-76
2022/05/31 09:24:45;;;;;;;2.40;1.40;;;18.30;99.90;;;;;;8343060;28;20193;-77
2022/05/31 09:28:57;;;;;;;2.10;1.43;;;18.50;99.90;;;;;;8326295;28;20226;-76
2022/05/31 09:33:16;;;;;;;1.73;1.40;;;18.10;99.90;;;;;;8332726;28;20182;-80
2022/05/31 09:37:17;;;;;;;2.20;1.23;;;17.80;99.90;;;;;;8326523;28;20250;-80
2022/05/31 09:41:50;;;;;;;2.97;1.87;;;18.00;99.90;;;;;;8331729;28;20214;-80
2022/05/31 09:46:10;;;;;;;5.60;1.67;;;18.30;99.90;;;;;;8286894;28;20271;-77
2022/05/31 09:50:11;;;;;;;3.07;1.33;;;18.50;99.90;;;;;;8327510;28;20205;-76
2022/05/31 09:58:36;;;;;;;2.10;1.00;;;18.70;99.90;;;;;;8347334;28;20201;-79
2022/05/31 10:02:37;;;;;;;3.93;1.73;;;18.70;99.90;;;;;;8334513;28;20265;-79
2022/05/31 10:06:56;;;;;;;3.60;1.90;;;18.90;90.50;;;;;;8336104;28;20174;-80
2022/05/31 10:11:02;;;;;;;1.20;1.10;;;19.00;99.90;;;;;;8349919;28;20565;-79
2022/05/31 10:15:06;;;;;;;1.00;0.90;;;19.20;90.50;;;;;;8326744;28;20548;-81
2022/05/31 10:19:20;;;;;;;1.67;0.90;;;19.50;99.90;;;;;;8334606;28;20192;-80
2022/05/31 10:23:24;;;;;;;1.70;0.90;;;19.80;88.50;;;;;;8331127;28;20213;-80
2022/05/31 10:27:28;;;;;;;3.90;0.90;;;20.20;68.60;;;;;;8331680;28;20206;-76
2022/05/31 10:31:45;;;;;;;1.63;0.70;;;20.50;32.40;;;;;;8325051;28;20221;-76
2022/05/31 10:36:02;;;;;;;2.10;0.93;;;20.80;47.10;;;;;;8335531;28;20228;-76
2022/05/31 10:40:16;;;;;;;2.73;1.20;;;20.80;58.40;;;;;;8331854;28;20232;-76
2022/05/31 10:44:35;;;;;;;1.70;1.00;;;21.10;33.90;;;;;;8334312;28;20185;-79
2022/05/31 10:48:46;;;;;;;1.30;1.03;;;21.30;57.70;;;;;;8341006;28;20182;-80
2022/05/31 10:53:04;;;;;;;2.77;1.13;;;21.50;21.80;;;;;;8331806;28;20197;-77
2022/05/31 10:57:17;;;;;;;3.40;1.10;;;21.60;2.20;;;;;;8324994;28;20186;-76
2022/05/31 11:01:39;;;;;;;1.33;1.00;;;21.80;1.00;;;;;;8347930;28;20190;-78
2022/05/31 11:05:58;;;;;;;1.53;1.20;;;21.90;1.00;;;;;;8337849;28;20220;-80
2022/05/31 11:15:04;;;;;;;2.73;1.20;;;21.90;1.50;;;;;;8346755;28;20194;-75
2022/05/31 11:19:17;;;;;;;3.37;1.03;;;22.10;1.00;;;;;;8327194;28;20198;-80
2022/05/31 11:24:06;;;;;;;2.63;1.60;;;22.20;1.00;;;;;;8339658;28;20190;-76
2022/05/31 11:28:22;;;;;;;1.67;1.27;;;22.10;1.00;;;;;;8302495;28;20280;-76
2022/05/31 11:33:13;;;;;;;2.50;1.30;;;22.00;1.00;;;;;;8340008;28;20207;-76
2022/05/31 11:37:46;;;;;;;2.53;1.23;;;22.00;1.00;;;;;;8333322;28;20192;-77
2022/05/31 11:42:45;;;;;;;1.07;0.80;;;22.00;1.00;;;;;;8332676;28;20221;-79
2022/05/31 11:47:04;;;;;;;2.73;1.10;;;22.60;1.00;;;;;;8228577;28;20198;-76
2022/05/31 11:51:26;;;;;;;2.50;1.00;;;23.10;1.00;;;;;;8334954;28;20264;-76
2022/05/31 11:55:37;;;;;;;2.80;1.10;;;23.10;1.00;;;;;;8347287;28;20239;-76
2022/05/31 12:00:05;;;;;;;1.70;1.03;;;22.90;1.00;;;;;;8324217;28;20214;-78
2022/05/31 12:04:19;;;;;;;1.80;1.10;;;23.10;1.00;;;;;;8349077;28;20217;-76
2022/05/31 12:08:48;;;;;;;1.30;1.00;;;23.10;1.00;;;;;;8344391;28;20218;-76
2022/05/31 12:12:50;;;;;;;1.70;0.83;;;23.60;1.00;;;;;;8342066;28;20275;-76
2022/05/31 12:16:52;;;;;;;1.03;0.80;;;24.00;1.00;;;;;;8341256;28;20197;-78
2022/05/31 12:21:00;;;;;;;1.90;0.80;;;24.20;1.00;;;;;;8328159;28;20195;-80
2022/05/31 12:25:11;;;;;;;1.67;0.90;;;24.40;1.00;;;;;;8318434;28;20200;-76
2022/05/31 12:29:25;;;;;;;2.60;1.40;;;24.70;1.00;;;;;;8447252;27;20560;-66
2022/05/31 12:33:49;;;;;;;1.45;1.10;;;25.00;1.00;;;;;;8445980;28;20176;-72
2022/05/31 12:38:02;;;;;;;1.88;1.13;;;25.10;1.00;;;;;;8441359;28;20191;-70
2022/05/31 12:42:15;;;;;;;3.35;1.00;;;25.40;1.00;;;;;;8434962;28;20211;-68
2022/05/31 12:46:45;;;;;;;1.45;0.93;;;24.90;1.00;;;;;;8432724;28;20239;-67
2022/05/31 12:50:55;;;;;;;2.13;0.75;;;24.80;1.00;;;;;;8442242;28;20359;-70
2022/05/31 12:54:58;;;;;;;2.38;0.70;;;25.20;1.00;;;;;;8430611;28;20177;-69
2022/05/31 12:59:01;;;;;;;2.25;0.73;;;25.60;1.00;;;;;;8437508;28;20184;-66
2022/05/31 13:03:05;;;;;;;2.83;0.90;;;25.90;1.00;;;;;;8442590;28;20183;-67
2022/05/31 13:07:13;;;;;;;15.90;10.00;;;25.80;1.00;;;;;;8439292;28;20248;-66
2022/05/31 13:20:13;;;;;;;1.45;0.82;;;25.40;1.00;;;;;;8444775;28;20199;-66
2022/05/31 13:24:17;;;;;;;2.47;1.08;;;24.60;1.00;;;;;;8430094;28;20187;-66
2022/05/31 13:28:23;;;;;;;1.10;0.93;;;24.50;1.00;;;;;;8443333;28;20222;-69
2022/05/31 13:32:24;;;;;;;2.00;1.20;;;24.00;1.00;;;;;;8438319;28;20173;-67
2022/05/31 13:36:39;;;;;;;4.20;1.03;;;23.60;1.00;;;;;;8441084;28;20183;-67
2022/05/31 13:40:43;;;;;;;1.30;1.13;;;23.50;1.00;;;;;;8418520;28;20185;-67
2022/05/31 13:44:45;;;;;;;1.63;0.70;;;23.90;1.00;;;;;;8407134;28;20191;-64
2022/05/31 13:48:52;;;;;;;1.20;0.73;;;24.40;1.00;;;;;;8406180;28;20382;-62
2022/05/31 13:52:53;;;;;;;3.57;1.20;;;24.90;1.00;;;;;;8410549;28;20177;-63
2022/05/31 13:56:59;;;;;;;1.87;1.47;;;24.70;1.00;;;;;;8403556;28;20237;-63
2022/05/31 14:01:02;;;;;;;3.07;1.10;;;24.40;1.00;;;;;;8403336;28;20215;-62
2022/05/31 14:05:03;;;;;;;1.40;0.90;;;24.10;1.00;;;;;;8405188;28;20187;-62
2022/05/31 14:09:06;;;;;;;1.17;0.70;;;23.90;1.00;;;;;;8399211;28;20304;-65
2022/05/31 14:13:09;;;;;;;2.63;0.97;;;24.00;1.00;;;;;;8398984;28;20185;-60
2022/05/31 14:17:12;;;;;;;2.50;1.13;;;24.20;1.00;;;;;;8404836;28;20192;-63
2022/05/31 14:21:17;;;;;;;2.63;1.20;;;24.30;1.00;;;;;;8405956;28;20176;-61
2022/05/31 14:25:23;;;;;;;1.10;0.83;;;24.10;1.00;;;;;;8399801;28;20185;-63
2022/05/31 14:29:30;;;;;;;1.30;1.03;;;24.10;1.00;;;;;;8404286;28;20200;-66
2022/05/31 14:33:34;;;;;;;2.87;1.27;;;24.10;1.00;;;;;;8410030;28;20173;-66
2022/05/31 14:37:44;;;;;;;2.90;0.97;;;24.00;1.00;;;;;;8399889;28;20254;-63
2022/05/31 14:41:45;;;;;;;2.60;0.60;;;23.80;1.00;;;;;;8401680;28;20185;-64
2022/05/31 14:45:51;;;;;;;1.73;0.97;;;23.30;1.00;;;;;;8396787;28;20219;-62
2022/05/31 14:50:14;;;;;;;2.77;1.00;;;23.10;1.00;;;;;;8398378;28;20211;-62
2022/05/31 14:54:44;;;;;;;2.20;1.40;;;23.20;1.00;;;;;;8403037;28;20161;-64
2022/05/31 14:58:47;;;;;;;2.23;1.10;;;23.40;1.00;;;;;;8409760;28;20177;-63
2022/05/31 15:02:49;;;;;;;2.40;0.90;;;23.40;1.00;;;;;;8398061;28;20187;-62
2022/05/31 15:07:06;;;;;;;2.50;1.00;;;23.00;1.00;;;;;;8400345;28;20270;-66
2022/05/31 15:19:50;;;;;;;2.23;0.77;;;23.90;1.00;;;;;;8408237;28;20186;-68
2022/05/31 15:23:52;;;;;;;2.03;1.10;;;23.70;1.00;;;;;;8406191;28;20517;-68
2022/05/31 15:27:53;;;;;;;2.43;1.00;;;23.70;1.00;;;;;;8405445;28;20248;-67
2022/05/31 15:31:53;;;;;;;2.23;1.07;;;23.60;1.00;;;;;;8408262;28;20177;-68
2022/05/31 15:35:54;;;;;;;1.77;1.20;;;23.70;1.00;;;;;;8409005;28;20213;-65
2022/05/31 15:39:59;;;;;;;1.47;1.17;;;23.60;1.00;;;;;;8408212;28;20581;-66
2022/05/31 15:44:02;;;;;;;2.03;1.10;;;23.50;1.00;;;;;;8409642;28;20172;-66
2022/05/31 15:48:03;;;;;;;3.60;1.20;;;23.30;1.00;;;;;;8406559;28;20241;-67
2022/05/31 15:52:16;;;;;;;2.97;1.43;;;23.10;1.00;;;;;;8401615;28;20177;-67
2022/05/31 15:56:17;;;;;;;2.17;0.90;;;22.80;1.00;;;;;;8406730;28;20181;-65
2022/05/31 16:00:21;;;;;;;3.40;1.27;;;22.60;1.00;;;;;;8408201;28;20181;-67
2022/05/31 16:04:22;;;;;;;2.20;1.30;;;22.30;82.00;;;;;;8402279;28;20180;-67
2022/05/31 16:08:26;;;;;;;2.33;1.23;;;22.10;90.00;;;;;;8405271;28;20209;-66
2022/05/31 16:12:28;;;;;;;2.60;1.60;;;22.10;99.90;;;;;;8403581;28;20177;-67
2022/05/31 16:16:29;;;;;;;2.67;1.40;;;22.10;99.90;;;;;;8400369;28;20192;-66
2022/05/31 16:20:30;;;;;;;3.07;1.57;;;22.00;99.90;;;;;;8409913;28;20177;-67
2022/05/31 16:24:31;;;;;;;2.93;1.73;;;22.10;99.90;;;;;;8401516;28;20212;-67
2022/05/31 16:28:32;;;;;;;3.43;2.07;;;22.20;94.70;;;;;;8409308;28;20208;-69
2022/05/31 16:32:33;;;;;;;19.03;12.43;;;22.10;99.90;;;;;;8407953;28;20250;-67
2022/05/31 16:36:34;;;;;;;2.67;1.73;;;21.90;99.90;;;;;;8396858;28;20184;-67
2022/05/31 16:44:54;;;;;;;2.60;1.40;;;21.80;99.90;;;;;;8398977;28;20219;-67
2022/05/31 16:48:55;;;;;;;2.27;1.20;;;21.70;99.90;;;;;;8401948;28;20216;-68
2022/05/31 16:52:56;;;;;;;2.73;1.57;;;21.70;99.90;;;;;;8400304;28;20181;-69
2022/05/31 16:57:00;;;;;;;2.43;1.40;;;21.60;99.90;;;;;;8408016;28;20287;-67
2022/05/31 17:01:02;;;;;;;2.17;1.50;;;21.60;99.90;;;;;;8403904;28;20181;-68
2022/05/31 17:05:04;;;;;;;1.37;1.00;;;21.40;99.90;;;;;;8414363;28;20200;-68
2022/05/31 17:17:43;;;;;;;3.63;1.63;;;21.90;99.90;;;;;;8412589;28;20235;-65
2022/05/31 17:21:45;;;;;;;2.60;1.50;;;22.70;99.90;;;;;;8416045;28;20185;-66
2022/05/31 17:25:50;;;;;;;3.97;1.60;;;23.70;95.80;;;;;;8405025;28;20197;-66
2022/05/31 17:29:51;;;;;;;4.93;1.77;;;24.50;11.70;;;;;;8411980;28;20224;-66
2022/05/31 17:33:52;;;;;;;17.97;13.33;;;25.10;1.00;;;;;;8404973;28;20187;-67
2022/05/31 17:37:53;;;;;;;6.13;4.78;;;25.50;1.00;;;;;;8413762;28;20276;-67
2022/05/31 17:41:55;;;;;;;1.63;1.30;;;25.80;1.00;;;;;;8410236;28;20362;-68
2022/05/31 17:45:56;;;;;;;2.50;1.00;;;25.80;1.00;;;;;;8419073;28;20207;-67
2022/05/31 17:49:57;;;;;;;2.17;1.53;;;25.70;1.00;;;;;;8415728;28;20185;-70
2022/05/31 17:53:59;;;;;;;2.20;1.50;;;25.30;1.00;;;;;;8405066;28;20180;-65
2022/05/31 17:58:00;;;;;;;2.37;1.90;;;24.60;1.00;;;;;;8409235;28;20259;-67
2022/05/31 18:02:01;;;;;;;5.27;4.30;;;24.40;1.00;;;;;;8409215;28;20176;-69
2022/05/31 18:06:01;;;;;;;2.10;1.60;;;24.20;22.30;;;;;;8414444;28;20215;-69
2022/05/31 18:10:05;;;;;;;4.30;2.30;;;23.90;56.40;;;;;;8408796;28;20176;-67
2022/05/31 18:14:06;;;;;;;6.17;3.87;;;23.60;97.80;;;;;;8405530;28;20241;-67
2022/05/31 18:18:07;;;;;;;4.37;2.77;;;23.60;99.90;;;;;;8403068;28;20275;-65
2022/05/31 18:22:13;;;;;;;11.90;6.90;;;23.50;99.90;;;;;;8403373;28;20181;-67
2022/05/31 18:26:14;;;;;;;12.27;7.43;;;23.40;99.90;;;;;;8414246;28;20204;-66
2022/05/31 18:30:15;;;;;;;6.10;3.33;;;23.00;99.90;;;;;;8420354;28;20180;-66
2022/05/31 18:34:16;;;;;;;4.23;2.90;;;22.10;99.90;;;;;;8409911;28;20177;-65
2022/05/31 18:42:40;;;;;;;8.43;5.03;;;19.80;1.00;;;;;;8405191;28;20200;-67
2022/05/31 18:46:41;;;;;;;12.13;7.40;;;19.00;99.90;;;;;;8402541;28;20222;-67
2022/05/31 18:50:42;;;;;;;14.10;7.20;;;18.40;99.90;;;;;;8414185;28;20184;-67
2022/05/31 18:54:43;;;;;;;6.57;5.07;;;17.90;1.00;;;;;;8404026;28;20186;-67
2022/05/31 18:58:45;;;;;;;4.93;4.07;;;17.60;24.50;;;;;;8407336;28;20187;-67
2022/05/31 19:02:46;;;;;;;4.10;3.10;;;17.20;99.90;;;;;;8400224;28;20184;-66
2022/05/31 19:06:46;;;;;;;11.10;7.47;;;16.90;99.90;;;;;;8406516;28;20214;-67
2022/05/31 19:10:48;;;;;;;9.67;5.87;;;16.60;1.00;;;;;;8406786;28;20200;-68
2022/05/31 19:14:48;;;;;;;5.27;4.77;;;16.20;99.90;;;;;;8397475;28;20195;-68
2022/05/31 19:18:54;;;;;;;4.60;3.77;;;15.90;1.00;;;;;;8406352;28;20212;-68
2022/05/31 19:22:56;;;;;;;4.80;3.50;;;15.60;45.60;;;;;;8407962;28;20570;-67
2022/05/31 19:26:56;;;;;;;3.17;2.87;;;15.40;1.00;;;;;;8399685;28;20220;-67
2022/05/31 19:30:57;;;;;;;10.00;6.30;;;15.20;1.00;;;;;;8404318;28;20211;-68
2022/05/31 19:34:59;;;;;;;15.53;8.60;;;15.00;99.90;;;;;;8411631;28;20187;-68
2022/05/31 19:39:01;;;;;;;8.57;5.43;;;14.80;99.90;;;;;;8402882;28;20183;-68
2022/05/31 19:43:03;;;;;;;3.73;3.30;;;14.70;99.90;;;;;;8401800;28;20208;-68
2022/05/31 19:47:05;;;;;;;4.03;3.40;;;14.40;1.00;;;;;;8407049;28;20208;-68
2022/05/31 19:51:06;;;;;;;5.63;3.67;;;14.20;99.90;;;;;;8401484;28;20177;-69
2022/05/31 19:55:09;;;;;;;6.13;3.60;;;14.10;1.00;;;;;;8402821;28;20185;-72
2022/05/31 19:59:10;;;;;;;4.77;3.30;;;14.00;99.90;;;;;;8397645;28;20227;-68
2022/05/31 20:03:12;;;;;;;4.10;3.40;;;14.00;99.90;;;;;;8406711;28;20279;-68
2022/05/31 20:07:20;;;;;;;3.43;2.97;;;13.90;1.00;;;;;;8399899;28;20240;-68
2022/05/31 20:11:21;;;;;;;3.70;3.17;;;13.80;99.90;;;;;;8401953;28;20181;-67
2022/05/31 20:15:27;;;;;;;4.23;3.57;;;13.80;99.90;;;;;;8397826;28;20177;-68
2022/05/31 20:23:42;;;;;;;8.87;5.70;;;13.80;1.00;;;;;;8399929;28;20189;-68
2022/05/31 20:27:43;;;;;;;9.50;6.17;;;13.80;1.00;;;;;;8413423;28;20270;-63
2022/05/31 20:31:44;;;;;;;8.97;6.93;;;13.80;99.90;;;;;;8395739;28;20185;-67
2022/05/31 20:35:47;;;;;;;8.27;4.67;;;13.70;1.00;;;;;;8395020;28;20254;-68
2022/05/31 20:39:48;;;;;;;5.10;4.23;;;13.70;17.10;;;;;;8401057;28;20207;-67
2022/05/31 20:43:50;;;;;;;4.70;3.40;;;13.70;1.00;;;;;;8401291;28;20188;-66
2022/05/31 20:47:51;;;;;;;4.10;3.50;;;13.70;1.00;;;;;;8398994;28;20211;-64
2022/05/31 20:51:57;;;;;;;3.53;3.23;;;13.70;1.00;;;;;;8405397;28;20180;-64
2022/05/31 20:56:00;;;;;;;4.97;3.07;;;13.70;1.00;;;;;;8410462;28;20367;-66
2022/05/31 21:00:02;;;;;;;3.13;2.80;;;13.70;99.90;;;;;;8408610;28;20189;-66
2022/05/31 21:04:04;;;;;;;4.10;2.60;;;13.60;99.90;;;;;;8398873;28;20187;-66
2022/05/31 21:08:05;;;;;;;4.60;3.10;;;13.60;1.00;;;;;;8404807;28;20273;-64
2022/05/31 21:12:08;;;;;;;3.23;2.93;;;13.50;93.90;;;;;;8403435;28;20173;-64
2022/05/31 21:16:09;;;;;;;3.53;3.23;;;13.50;99.90;;;;;;8393905;28;20189;-65
2022/05/31 21:20:10;;;;;;;2.60;2.40;;;13.50;1.00;;;;;;8402195;28;20185;-64
2022/05/31 21:24:12;;;;;;;4.27;2.40;;;13.40;94.60;;;;;;8410783;28;20393;-67
2022/05/31 21:28:17;;;;;;;3.53;3.03;;;13.40;1.00;;;;;;8403842;28;20220;-68
2022/05/31 21:32:17;;;;;;;3.73;2.73;;;13.50;99.00;;;;;;8410433;28;20204;-63
2022/05/31 21:36:18;;;;;;;3.00;2.77;;;13.50;99.90;;;;;;8403932;28;20184;-66
2022/05/31 21:44:38;;;;;;;3.07;2.63;;;13.40;99.90;;;;;;8407360;28;20264;-64
2022/05/31 21:48:39;;;;;;;3.63;2.50;;;13.40;99.90;;;;;;8403953;28;20212;-66
2022/05/31 21:52:40;;;;;;;2.80;2.50;;;13.40;99.90;;;;;;8400435;28;20173;-67
2022/05/31 21:56:41;;;;;;;3.17;2.90;;;13.40;99.90;;;;;;8405123;28;20180;-65
2022/05/31 22:01:04;;;;;;;3.60;3.00;;;13.30;1.00;;;;;;8405915;28;20185;-66
2022/05/31 22:05:06;;;;;;;3.73;2.80;;;13.30;1.00;;;;;;8406786;28;20181;-67
2022/05/31 22:09:08;;;;;;;3.10;2.60;;;13.30;1.00;;;;;;8409559;28;20209;-66
2022/05/31 22:13:11;;;;;;;3.13;2.83;;;13.30;1.00;;;;;;8404983;28;20189;-65
2022/05/31 22:17:12;;;;;;;3.27;2.97;;;13.30;99.90;;;;;;8405302;28;20177;-63
2022/05/31 22:21:13;;;;;;;4.53;3.70;;;13.30;99.90;;;;;;8402021;28;20184;-65
2022/05/31 22:25:18;;;;;;;5.63;3.60;;;13.30;17.30;;;;;;8401898;28;20224;-65
2022/05/31 22:29:19;;;;;;;3.53;3.23;;;13.20;99.90;;;;;;8401929;28;20259;-66
2022/05/31 22:33:20;;;;;;;3.43;2.70;;;13.20;99.90;;;;;;8401111;28;20197;-66
2022/05/31 22:37:21;;;;;;;3.20;2.90;;;13.20;99.90;;;;;;8402937;28;20176;-64
2022/05/31 22:41:28;;;;;;;3.33;3.03;;;13.20;99.90;;;;;;8407124;28;20226;-67
2022/05/31 22:45:29;;;;;;;3.63;3.30;;;13.20;99.90;;;;;;8405739;28;20196;-64